Time,TemperatureF,DewpointF,PressureIn,WindDirection,WindDirectionDegrees,WindSpeedMPH,WindSpeedGustMPH,Humidity,HourlyPrecipIn,Conditions,Clouds,dailyrainin,SoftwareType,DateUTC
2013-05-02 00:02:00,37.0,36.0,30.29,North,360,21.0,29.0,93,-99.99,,,-99.99,,2013-05-02 05:02:00,
2013-05-02 00:12:00,37.0,36.0,30.33,North,360,16.0,28.0,93,-99.99,,,-99.99,,2013-05-02 05:12:00,
2013-05-02 00:22:00,36.0,34.0,30.34,North,360,18.0,27.0,93,-99.99,,,-99.99,,2013-05-02 05:22:00,
2013-05-02 00:32:00,36.0,34.0,30.35,North,350,15.0,25.0,93,-99.99,,,-99.99,,2013-05-02 05:32:00,
2013-05-02 00:42:00,37.0,36.0,30.36,North,350,18.0,25.0,93,-99.99,,,-99.99,,2013-05-02 05:42:00,
2013-05-02 00:52:00,37.0,34.0,30.34,North,360,21.0,28.0,86,-99.99,,,-99.99,,2013-05-02 05:52:00,
2013-05-02 01:01:00,37.0,34.0,30.34,North,360,21.0,28.0,86,-99.99,,,-99.99,,2013-05-02 06:01:00,
2013-05-02 01:12:00,37.0,36.0,30.37,North,350,17.0,24.0,93,-99.99,,,-99.99,,2013-05-02 06:12:00,
2013-05-02 01:21:00,37.0,36.0,30.36,North,350,16.0,25.0,93,-99.99,,,-99.99,,2013-05-02 06:21:00,
2013-05-02 01:31:00,36.0,34.0,30.36,North,360,21.0,27.0,93,-99.99,,,-99.99,,2013-05-02 06:31:00,
2013-05-02 01:42:00,36.0,34.0,30.34,North,360,21.0,27.0,93,-99.99,,,-99.99,,2013-05-02 06:42:00,
2013-05-02 01:52:00,36.0,34.0,30.32,North,10,23.0,32.0,93,-99.99,,,-99.99,,2013-05-02 06:52:00,
2013-05-02 02:02:00,36.0,34.0,30.32,North,10,23.0,32.0,93,-99.99,,,-99.99,,2013-05-02 07:02:00,
2013-05-02 02:11:00,36.0,34.0,30.36,NNW,340,17.0,30.0,93,-99.99,,,-99.99,,2013-05-02 07:11:00,
2013-05-02 02:21:00,36.0,34.0,30.36,North,350,17.0,28.0,93,-99.99,,,-99.99,,2013-05-02 07:21:00,
2013-05-02 02:32:00,36.0,34.0,30.34,North,360,20.0,25.0,93,-99.99,,,-99.99,,2013-05-02 07:32:00,
2013-05-02 02:41:00,36.0,34.0,30.35,North,360,18.0,29.0,93,-99.99,,,-99.99,,2013-05-02 07:41:00,
2013-05-02 02:52:00,36.0,34.0,30.35,North,350,24.0,31.0,93,-99.99,,,-99.99,,2013-05-02 07:52:00,
2013-05-02 03:02:00,36.0,34.0,30.35,North,350,24.0,31.0,93,-99.99,,,-99.99,,2013-05-02 08:02:00,
2013-05-02 03:11:00,36.0,34.0,30.35,North,350,21.0,30.0,93,-99.99,,,-99.99,,2013-05-02 08:11:00,
2013-05-02 03:22:00,36.0,34.0,30.35,North,350,22.0,29.0,93,-99.99,,,-99.99,,2013-05-02 08:22:00,
2013-05-02 03:32:00,36.0,34.0,30.38,NNW,340,21.0,30.0,93,-99.99,,,-99.99,,2013-05-02 08:32:00,
2013-05-02 03:42:00,36.0,34.0,30.38,North,350,20.0,30.0,93,-99.99,,,-99.99,,2013-05-02 08:42:00,
2013-05-02 03:52:00,36.0,34.0,30.37,North,350,17.0,29.0,93,-99.99,,,-99.99,,2013-05-02 08:52:00,
2013-05-02 04:02:00,36.0,34.0,30.37,North,350,17.0,29.0,93,-99.99,,,-99.99,,2013-05-02 09:02:00,
2013-05-02 04:11:00,36.0,34.0,30.40,NNW,340,18.0,28.0,93,-99.99,,,-99.99,,2013-05-02 09:11:00,
2013-05-02 04:21:00,34.0,32.0,30.40,North,350,22.0,30.0,93,-99.99,,,-99.99,,2013-05-02 09:21:00,
2013-05-02 04:32:00,34.0,32.0,30.39,NNW,340,22.0,30.0,93,-99.99,,,-99.99,,2013-05-02 09:32:00,
2013-05-02 04:42:00,34.0,32.0,30.41,NNW,340,20.0,29.0,93,-99.99,,,-99.99,,2013-05-02 09:42:00,
2013-05-02 04:52:00,34.0,32.0,30.43,NNW,330,17.0,25.0,93,-99.99,,,-99.99,,2013-05-02 09:52:00,
2013-05-02 05:02:00,34.0,32.0,30.43,NNW,330,17.0,25.0,93,-99.99,,,-99.99,,2013-05-02 10:02:00,
2013-05-02 05:12:00,34.0,32.0,30.43,NNW,340,18.0,28.0,93,-99.99,,,-99.99,,2013-05-02 10:12:00,
2013-05-02 05:22:00,34.0,32.0,30.41,North,350,22.0,25.0,93,-99.99,,,-99.99,,2013-05-02 10:22:00,
2013-05-02 05:32:00,34.0,32.0,30.42,NNW,340,23.0,28.0,93,-99.99,,,-99.99,,2013-05-02 10:32:00,
2013-05-02 05:42:00,34.0,32.0,30.43,NNW,340,20.0,30.0,93,-99.99,,,-99.99,,2013-05-02 10:42:00,
2013-05-02 05:52:00,34.0,32.0,30.45,NNW,340,18.0,27.0,93,-99.99,,,-99.99,,2013-05-02 10:52:00,
2013-05-02 06:02:00,34.0,32.0,30.45,NNW,340,18.0,27.0,93,-99.99,,,-99.99,,2013-05-02 11:02:00,
2013-05-02 06:11:00,34.0,32.0,30.44,NNW,340,20.0,30.0,93,-99.99,,,-99.99,,2013-05-02 11:11:00,
2013-05-02 06:22:00,34.0,32.0,30.46,NNW,340,15.0,27.0,93,-99.99,,,-99.99,,2013-05-02 11:22:00,
2013-05-02 06:32:00,34.0,32.0,30.44,North,350,16.0,23.0,93,-99.99,,,-99.99,,2013-05-02 11:32:00,
2013-05-02 06:42:00,34.0,32.0,30.45,North,350,20.0,25.0,93,-99.99,,,-99.99,,2013-05-02 11:42:00,
2013-05-02 06:52:00,34.0,32.0,30.46,North,350,17.0,25.0,93,-99.99,,,-99.99,,2013-05-02 11:52:00,
2013-05-02 07:01:00,34.0,32.0,30.46,North,350,17.0,25.0,93,-99.99,,,-99.99,,2013-05-02 12:01:00,
2013-05-02 07:11:00,34.0,32.0,30.50,NW,320,13.0,25.0,93,-99.99,,,-99.99,,2013-05-02 12:11:00,
2013-05-02 07:21:00,36.0,32.0,30.48,NNW,340,16.0,25.0,86,-99.99,,,-99.99,,2013-05-02 12:21:00,
2013-05-02 07:32:00,34.0,32.0,30.49,NNW,340,17.0,27.0,93,-99.99,,,-99.99,,2013-05-02 12:32:00,
2013-05-02 07:42:00,34.0,32.0,30.50,North,350,17.0,25.0,93,-99.99,,,-99.99,,2013-05-02 12:42:00,
2013-05-02 07:52:00,34.0,32.0,30.49,North,350,16.0,24.0,93,-99.99,,,-99.99,,2013-05-02 12:52:00,
2013-05-02 08:01:00,34.0,32.0,30.49,North,350,16.0,24.0,93,-99.99,,,-99.99,,2013-05-02 13:01:00,
2013-05-02 08:11:00,36.0,34.0,30.48,North,350,18.0,25.0,93,-99.99,,,-99.99,,2013-05-02 13:11:00,
2013-05-02 08:21:00,36.0,34.0,30.48,North,350,18.0,28.0,93,-99.99,,,-99.99,,2013-05-02 13:21:00,
2013-05-02 08:31:00,34.0,32.0,30.48,North,350,20.0,28.0,93,-99.99,,,-99.99,,2013-05-02 13:31:00,
2013-05-02 08:42:00,34.0,32.0,30.49,North,350,18.0,28.0,93,-99.99,,,-99.99,,2013-05-02 13:42:00,
2013-05-02 08:52:00,36.0,34.0,30.51,NNW,340,15.0,24.0,93,-99.99,,,-99.99,,2013-05-02 13:52:00,
2013-05-02 09:02:00,36.0,34.0,30.51,NNW,340,15.0,24.0,93,-99.99,,,-99.99,,2013-05-02 14:02:00,
2013-05-02 09:11:00,36.0,34.0,30.50,North,350,21.0,28.0,93,-99.99,,,-99.99,,2013-05-02 14:11:00,
2013-05-02 09:22:00,36.0,32.0,30.51,North,350,16.0,27.0,86,-99.99,,,-99.99,,2013-05-02 14:22:00,
2013-05-02 09:32:00,36.0,34.0,30.52,North,350,16.0,25.0,93,-99.99,,,-99.99,,2013-05-02 14:32:00,
2013-05-02 09:42:00,36.0,34.0,30.52,North,350,16.0,24.0,93,-99.99,,,-99.99,,2013-05-02 14:42:00,
2013-05-02 09:52:00,36.0,34.0,30.52,North,350,16.0,29.0,93,-99.99,,,-99.99,,2013-05-02 14:52:00,
2013-05-02 10:02:00,36.0,34.0,30.52,North,350,16.0,29.0,93,-99.99,,,-99.99,,2013-05-02 15:02:00,
2013-05-02 10:12:00,36.0,32.0,30.52,North,10,24.0,29.0,86,-99.99,,,-99.99,,2013-05-02 15:12:00,
2013-05-02 10:22:00,36.0,34.0,30.51,North,10,20.0,30.0,93,-99.99,,,-99.99,,2013-05-02 15:22:00,
2013-05-02 10:33:00,37.0,34.0,30.51,North,10,16.0,25.0,86,-99.99,,,-99.99,,2013-05-02 15:33:00,
2013-05-02 10:43:00,37.0,34.0,30.51,North,10,14.0,23.0,86,-99.99,,,-99.99,,2013-05-02 15:43:00,
2013-05-02 11:02:00,39.0,34.0,30.51,North,360,20.0,28.0,80,-99.99,,,-99.99,,2013-05-02 16:02:00,
2013-05-02 11:13:00,39.0,32.0,30.51,North,350,12.0,21.0,75,-99.99,,,-99.99,,2013-05-02 16:13:00,
2013-05-02 11:22:00,39.0,34.0,30.51,NNW,340,18.0,27.0,80,-99.99,,,-99.99,,2013-05-02 16:22:00,
2013-05-02 11:32:00,39.0,32.0,30.51,North,350,18.0,28.0,75,-99.99,,,-99.99,,2013-05-02 16:32:00,
2013-05-02 11:43:00,39.0,30.0,30.51,North,350,17.0,25.0,69,-99.99,,,-99.99,,2013-05-02 16:43:00,
2013-05-02 11:52:00,39.0,30.0,30.51,NNW,340,18.0,25.0,69,-99.99,,,-99.99,,2013-05-02 16:52:00,
2013-05-02 12:02:00,39.0,30.0,30.51,NNW,340,18.0,25.0,69,-99.99,,,-99.99,,2013-05-02 17:02:00,
2013-05-02 12:12:00,39.0,28.0,30.51,North,350,21.0,27.0,64,-99.99,,,-99.99,,2013-05-02 17:12:00,
2013-05-02 12:22:00,39.0,28.0,30.51,North,350,16.0,28.0,64,-99.99,,,-99.99,,2013-05-02 17:22:00,
2013-05-02 12:32:00,41.0,30.0,30.51,North,350,18.0,27.0,65,-99.99,,,-99.99,,2013-05-02 17:32:00,
2013-05-02 12:42:00,41.0,28.0,30.51,North,360,17.0,25.0,60,-99.99,,,-99.99,,2013-05-02 17:42:00,
2013-05-02 12:51:00,41.0,28.0,30.51,NNW,340,22.0,28.0,60,-99.99,,,-99.99,,2013-05-02 17:51:00,
2013-05-02 13:01:00,41.0,28.0,30.51,NNW,340,22.0,28.0,60,-99.99,,,-99.99,,2013-05-02 18:01:00,
2013-05-02 13:11:00,41.0,28.0,30.50,North,350,21.0,30.0,60,-99.99,,,-99.99,,2013-05-02 18:11:00,
2013-05-02 13:21:00,43.0,27.0,30.50,North,350,24.0,33.0,52,-99.99,,,-99.99,,2013-05-02 18:21:00,
2013-05-02 13:32:00,43.0,28.0,30.49,North,360,16.0,27.0,56,-99.99,,,-99.99,,2013-05-02 18:32:00,
2013-05-02 13:41:00,43.0,28.0,30.50,North,350,24.0,32.0,56,-99.99,,,-99.99,,2013-05-02 18:41:00,
2013-05-02 13:52:00,45.0,28.0,30.49,North,350,21.0,28.0,52,-99.99,,,-99.99,,2013-05-02 18:52:00,
2013-05-02 14:01:00,45.0,28.0,30.49,North,350,21.0,28.0,52,-99.99,,,-99.99,,2013-05-02 19:01:00,
2013-05-02 14:11:00,45.0,28.0,30.50,North,350,24.0,31.0,52,-99.99,,,-99.99,,2013-05-02 19:11:00,
2013-05-02 14:21:00,45.0,28.0,30.50,North,350,21.0,29.0,52,-99.99,,,-99.99,,2013-05-02 19:21:00,
2013-05-02 14:31:00,45.0,28.0,30.49,NNW,340,18.0,29.0,52,-99.99,,,-99.99,,2013-05-02 19:31:00,
2013-05-02 14:42:00,45.0,30.0,30.49,North,360,20.0,29.0,56,-99.99,,,-99.99,,2013-05-02 19:42:00,
2013-05-02 14:52:00,45.0,28.0,30.48,North,350,24.0,32.0,52,-99.99,,,-99.99,,2013-05-02 19:52:00,
2013-05-02 15:02:00,45.0,28.0,30.48,North,350,24.0,32.0,52,-99.99,,,-99.99,,2013-05-02 20:02:00,
2013-05-02 15:11:00,46.0,28.0,30.48,North,360,25.0,30.0,49,-99.99,,,-99.99,,2013-05-02 20:11:00,
2013-05-02 15:22:00,46.0,28.0,30.48,North,350,24.0,32.0,49,-99.99,,,-99.99,,2013-05-02 20:22:00,
2013-05-02 15:32:00,48.0,28.0,30.48,North,360,21.0,30.0,46,-99.99,,,-99.99,,2013-05-02 20:32:00,
2013-05-02 15:41:00,46.0,27.0,30.48,North,10,27.0,35.0,45,-99.99,,,-99.99,,2013-05-02 20:41:00,
2013-05-02 15:52:00,48.0,28.0,30.47,North,10,24.0,30.0,46,-99.99,,,-99.99,,2013-05-02 20:52:00,
2013-05-02 16:01:00,48.0,28.0,30.47,North,10,24.0,30.0,46,-99.99,,,-99.99,,2013-05-02 21:01:00,
2013-05-02 16:11:00,48.0,30.0,30.46,North,350,24.0,32.0,49,-99.99,,,-99.99,,2013-05-02 21:11:00,
2013-05-02 16:21:00,48.0,28.0,30.46,North,360,20.0,28.0,46,-99.99,,,-99.99,,2013-05-02 21:21:00,
2013-05-02 16:33:00,48.0,30.0,30.45,North,360,20.0,30.0,49,-99.99,,,-99.99,,2013-05-02 21:33:00,
2013-05-02 16:42:00,48.0,30.0,30.45,North,350,24.0,30.0,49,-99.99,,,-99.99,,2013-05-02 21:42:00,
2013-05-02 16:53:00,48.0,28.0,30.45,North,360,21.0,25.0,46,-99.99,,,-99.99,,2013-05-02 21:53:00,
2013-05-02 17:02:00,48.0,28.0,30.45,North,360,21.0,25.0,46,-99.99,,,-99.99,,2013-05-02 22:02:00,
2013-05-02 17:12:00,48.0,28.0,30.45,North,360,22.0,30.0,46,-99.99,,,-99.99,,2013-05-02 22:12:00,
2013-05-02 17:22:00,48.0,28.0,30.45,North,10,18.0,30.0,46,-99.99,,,-99.99,,2013-05-02 22:22:00,
2013-05-02 17:32:00,48.0,28.0,30.45,North,10,17.0,31.0,46,-99.99,,,-99.99,,2013-05-02 22:32:00,
2013-05-02 17:42:00,48.0,28.0,30.45,North,10,22.0,28.0,46,-99.99,,,-99.99,,2013-05-02 22:42:00,
2013-05-02 17:52:00,48.0,30.0,30.45,North,10,20.0,31.0,49,-99.99,,,-99.99,,2013-05-02 22:52:00,
2013-05-02 18:02:00,48.0,30.0,30.45,North,10,20.0,31.0,49,-99.99,,,-99.99,,2013-05-02 23:02:00,
2013-05-02 18:11:00,48.0,28.0,30.45,North,10,23.0,29.0,46,-99.99,,,-99.99,,2013-05-02 23:11:00,
2013-05-02 18:22:00,48.0,28.0,30.45,North,10,18.0,32.0,46,-99.99,,,-99.99,,2013-05-02 23:22:00,
2013-05-02 18:32:00,48.0,28.0,30.45,North,360,21.0,30.0,46,-99.99,,,-99.99,,2013-05-02 23:32:00,
2013-05-02 18:42:00,48.0,28.0,30.45,North,10,21.0,30.0,46,-99.99,,,-99.99,,2013-05-02 23:42:00,
2013-05-02 18:51:00,48.0,27.0,30.44,North,10,20.0,29.0,42,-99.99,,,-99.99,,2013-05-02 23:51:00,
2013-05-02 19:01:00,48.0,27.0,30.44,North,10,20.0,29.0,42,-99.99,,,-99.99,,2013-05-03 00:01:00,
2013-05-02 19:11:00,46.0,28.0,30.44,North,10,16.0,24.0,49,-99.99,,,-99.99,,2013-05-03 00:11:00,
2013-05-02 19:21:00,46.0,30.0,30.43,North,360,13.0,-999.0,52,-99.99,,,-99.99,,2013-05-03 00:21:00,
2013-05-02 19:31:00,46.0,30.0,30.43,North,360,14.0,17.0,52,-99.99,,,-99.99,,2013-05-03 00:31:00,
2013-05-02 19:41:00,46.0,32.0,30.43,North,360,12.0,17.0,57,-99.99,,,-99.99,,2013-05-03 00:41:00,
2013-05-02 19:52:00,46.0,32.0,30.43,North,360,12.0,16.0,57,-99.99,,,-99.99,,2013-05-03 00:52:00,
2013-05-02 20:01:00,46.0,32.0,30.43,North,360,12.0,16.0,57,-99.99,,,-99.99,,2013-05-03 01:01:00,
2013-05-02 20:11:00,45.0,32.0,30.43,North,10,9.0,-999.0,61,-99.99,,,-99.99,,2013-05-03 01:11:00,
2013-05-02 20:21:00,45.0,32.0,30.43,North,360,7.0,-999.0,61,-99.99,,,-99.99,,2013-05-03 01:21:00,
2013-05-02 20:31:00,43.0,32.0,30.43,North,360,6.0,-999.0,65,-99.99,,,-99.99,,2013-05-03 01:31:00,
2013-05-02 20:42:00,43.0,32.0,30.43,North,350,6.0,-999.0,65,-99.99,,,-99.99,,2013-05-03 01:42:00,
2013-05-02 20:52:00,41.0,34.0,30.43,North,350,5.0,-999.0,75,-99.99,,,-99.99,,2013-05-03 01:52:00,
2013-05-02 21:01:00,41.0,34.0,30.43,North,350,5.0,-999.0,75,-99.99,,,-99.99,,2013-05-03 02:01:00,
2013-05-02 21:11:00,39.0,34.0,30.43,NNW,340,5.0,-999.0,80,-99.99,,,-99.99,,2013-05-03 02:11:00,
2013-05-02 21:21:00,41.0,32.0,30.43,NW,310,3.0,-999.0,70,-99.99,,,-99.99,,2013-05-03 02:21:00,
2013-05-02 21:32:00,39.0,32.0,30.43,NW,320,5.0,-999.0,75,-99.99,,,-99.99,,2013-05-03 02:32:00,
2013-05-02 21:42:00,39.0,32.0,30.43,NW,320,3.0,-999.0,75,-99.99,,,-99.99,,2013-05-03 02:42:00,
2013-05-02 21:52:00,41.0,32.0,30.43,NW,320,3.0,-999.0,70,-99.99,,,-99.99,,2013-05-03 02:52:00,
2013-05-02 22:01:00,41.0,32.0,30.43,NW,320,3.0,-999.0,70,-99.99,,,-99.99,,2013-05-03 03:01:00,
2013-05-02 22:11:00,39.0,32.0,30.42,NNW,330,5.0,-999.0,75,-99.99,,,-99.99,,2013-05-03 03:11:00,
2013-05-02 22:21:00,39.0,32.0,30.42,North,0,0.0,-999.0,75,-99.99,,,-99.99,,2013-05-03 03:21:00,
2013-05-02 22:33:00,41.0,32.0,30.42,North,0,0.0,-999.0,70,-99.99,,,-99.99,,2013-05-03 03:33:00,
2013-05-02 22:42:00,41.0,32.0,30.42,North,0,0.0,-999.0,70,-99.99,,,-99.99,,2013-05-03 03:42:00,
2013-05-02 22:52:00,39.0,32.0,30.42,NNW,330,3.0,-999.0,75,-99.99,,,-99.99,,2013-05-03 03:52:00,
2013-05-02 23:03:00,39.0,32.0,30.42,NNW,330,3.0,-999.0,75,-99.99,,,-99.99,,2013-05-03 04:03:00,
2013-05-02 23:12:00,39.0,32.0,30.41,NW,320,3.0,-999.0,75,-99.99,,,-99.99,,2013-05-03 04:12:00,
2013-05-02 23:22:00,39.0,32.0,30.40,NNW,330,5.0,-999.0,75,-99.99,,,-99.99,,2013-05-03 04:22:00,
2013-05-02 23:32:00,39.0,32.0,30.40,NW,320,5.0,-999.0,75,-99.99,,,-99.99,,2013-05-03 04:32:00,
2013-05-02 23:42:00,39.0,32.0,30.40,NW,320,5.0,-999.0,75,-99.99,,,-99.99,,2013-05-03 04:42:00,
2013-05-02 23:52:00,37.0,30.0,30.39,NW,310,3.0,-999.0,74,-99.99,,,-99.99,,2013-05-03 04:52:00,